sensor_id;sensor_type;location;lat;lon;timestamp;temperature;humidity
4604;DHT22;2314;48.272;11.562;2022-09-17T00:01:08;9.30;99.90
4604;DHT22;2314;48.272;11.562;2022-09-17T00:03:37;9.30;99.90
4604;DHT22;2314;48.272;11.562;2022-09-17T00:06:06;9.30;99.90
4604;DHT22;2314;48.272;11.562;2022-09-17T00:08:35;9.30;99.90
4604;DHT22;2314;48.272;11.562;2022-09-17T00:11:06;9.30;99.90
4604;DHT22;2314;48.272;11.562;2022-09-17T00:13:34;9.30;99.90
4604;DHT22;2314;48.272;11.562;2022-09-17T00:16:01;9.30;99.90
4604;DHT22;2314;48.272;11.562;2022-09-17T00:18:29;9.40;99.90
4604;DHT22;2314;48.272;11.562;2022-09-17T00:20:56;9.40;99.90
4604;DHT22;2314;48.272;11.562;2022-09-17T00:23:23;9.40;99.90
4604;DHT22;2314;48.272;11.562;2022-09-17T00:25:50;9.40;99.90
4604;DHT22;2314;48.272;11.562;2022-09-17T00:28:17;9.50;99.90
4604;DHT22;2314;48.272;11.562;2022-09-17T00:30:45;9.40;99.90
4604;DHT22;2314;48.272;11.562;2022-09-17T00:33:14;9.50;99.90
4604;DHT22;2314;48.272;11.562;2022-09-17T00:35:43;9.40;99.90
4604;DHT22;2314;48.272;11.562;2022-09-17T00:38:10;9.40;99.90
4604;DHT22;2314;48.272;11.562;2022-09-17T00:40:37;9.40;99.90
4604;DHT22;2314;48.272;11.562;2022-09-17T00:43:09;9.40;99.90
4604;DHT22;2314;48.272;11.562;2022-09-17T00:45:37;9.40;99.90
4604;DHT22;2314;48.272;11.562;2022-09-17T00:48:05;9.30;99.90
4604;DHT22;2314;48.272;11.562;2022-09-17T00:50:37;9.30;99.90
4604;DHT22;2314;48.272;11.562;2022-09-17T00:53:09;9.30;99.90
4604;DHT22;2314;48.272;11.562;2022-09-17T00:55:39;9.30;99.90
4604;DHT22;2314;48.272;11.562;2022-09-17T00:58:10;9.20;99.90
4604;DHT22;2314;48.272;11.562;2022-09-17T01:00:39;9.20;99.90
4604;DHT22;2314;48.272;11.562;2022-09-17T01:03:07;9.10;99.90
4604;DHT22;2314;48.272;11.562;2022-09-17T01:05:41;9.10;99.90
4604;DHT22;2314;48.272;11.562;2022-09-17T01:08:21;9.00;99.90
4604;DHT22;2314;48.272;11.562;2022-09-17T01:11:11;9.00;99.90
4604;DHT22;2314;48.272;11.562;2022-09-17T01:13:54;9.00;99.90
4604;DHT22;2314;48.272;11.562;2022-09-17T01:16:33;9.00;99.90
4604;DHT22;2314;48.272;11.562;2022-09-17T01:19:25;9.00;99.90
4604;DHT22;2314;48.272;11.562;2022-09-17T01:22:13;9.00;99.90
4604;DHT22;2314;48.272;11.562;2022-09-17T01:25:10;9.00;99.90
4604;DHT22;2314;48.272;11.562;2022-09-17T01:31:14;9.00;99.90
4604;DHT22;2314;48.272;11.562;2022-09-17T01:34:00;9.10;99.90
4604;DHT22;2314;48.272;11.562;2022-09-17T01:36:54;9.00;99.90
4604;DHT22;2314;48.272;11.562;2022-09-17T01:39:32;9.10;99.90
4604;DHT22;2314;48.272;11.562;2022-09-17T01:42:14;9.10;99.90
4604;DHT22;2314;48.272;11.562;2022-09-17T01:44:52;9.10;99.90
4604;DHT22;2314;48.272;11.562;2022-09-17T01:47:23;9.20;99.90
4604;DHT22;2314;48.272;11.562;2022-09-17T01:49:58;9.20;99.90
4604;DHT22;2314;48.272;11.562;2022-09-17T01:52:27;9.20;99.90
4604;DHT22;2314;48.272;11.562;2022-09-17T01:55:01;9.10;99.90
4604;DHT22;2314;48.272;11.562;2022-09-17T01:57:33;9.20;99.90
4604;DHT22;2314;48.272;11.562;2022-09-17T02:00:06;9.30;99.90
4604;DHT22;2314;48.272;11.562;2022-09-17T02:02:39;9.30;99.90
4604;DHT22;2314;48.272;11.562;2022-09-17T02:05:13;9.30;99.90
4604;DHT22;2314;48.272;11.562;2022-09-17T02:07:46;9.40;99.90
4604;DHT22;2314;48.272;11.562;2022-09-17T02:10:20;9.30;99.90
4604;DHT22;2314;48.272;11.562;2022-09-17T02:12:53;9.30;99.90
4604;DHT22;2314;48.272;11.562;2022-09-17T02:15:27;9.30;99.90
4604;DHT22;2314;48.272;11.562;2022-09-17T02:18:00;9.30;99.90
4604;DHT22;2314;48.272;11.562;2022-09-17T02:20:44;9.20;99.90
4604;DHT22;2314;48.272;11.562;2022-09-17T02:23:15;9.10;99.90
4604;DHT22;2314;48.272;11.562;2022-09-17T02:25:51;9.10;99.90
4604;DHT22;2314;48.272;11.562;2022-09-17T02:28:28;9.00;99.90
4604;DHT22;2314;48.272;11.562;2022-09-17T02:30:58;9.00;99.90
4604;DHT22;2314;48.272;11.562;2022-09-17T02:33:27;9.00;99.90
4604;DHT22;2314;48.272;11.562;2022-09-17T02:35:56;9.00;99.90
4604;DHT22;2314;48.272;11.562;2022-09-17T02:38:24;9.00;99.90
4604;DHT22;2314;48.272;11.562;2022-09-17T02:40:55;8.90;99.90
4604;DHT22;2314;48.272;11.562;2022-09-17T02:43:34;8.90;99.90
4604;DHT22;2314;48.272;11.562;2022-09-17T02:46:17;8.90;99.90
4604;DHT22;2314;48.272;11.562;2022-09-17T02:49:08;8.80;99.90
4604;DHT22;2314;48.272;11.562;2022-09-17T02:51:46;8.80;99.90
4604;DHT22;2314;48.272;11.562;2022-09-17T02:54:26;8.70;99.90
4604;DHT22;2314;48.272;11.562;2022-09-17T02:57:03;8.70;99.90
4604;DHT22;2314;48.272;11.562;2022-09-17T02:59:38;8.60;99.90
4604;DHT22;2314;48.272;11.562;2022-09-17T03:02:15;8.60;99.90
4604;DHT22;2314;48.272;11.562;2022-09-17T03:04:46;8.50;99.90
4604;DHT22;2314;48.272;11.562;2022-09-17T03:07:16;8.50;99.90
4604;DHT22;2314;48.272;11.562;2022-09-17T03:09:44;8.50;99.90
4604;DHT22;2314;48.272;11.562;2022-09-17T03:12:11;8.60;99.90
4604;DHT22;2314;48.272;11.562;2022-09-17T03:14:38;8.50;99.90
4604;DHT22;2314;48.272;11.562;2022-09-17T03:17:05;8.50;99.90
4604;DHT22;2314;48.272;11.562;2022-09-17T03:19:32;8.50;99.90
4604;DHT22;2314;48.272;11.562;2022-09-17T03:22:01;8.50;99.90
4604;DHT22;2314;48.272;11.562;2022-09-17T03:24:28;8.40;99.90
4604;DHT22;2314;48.272;11.562;2022-09-17T03:26:55;8.40;99.90
4604;DHT22;2314;48.272;11.562;2022-09-17T03:29:22;8.30;99.90
4604;DHT22;2314;48.272;11.562;2022-09-17T03:31:50;8.30;99.90
4604;DHT22;2314;48.272;11.562;2022-09-17T03:34:17;8.20;99.90
4604;DHT22;2314;48.272;11.562;2022-09-17T03:36:45;8.20;99.90
4604;DHT22;2314;48.272;11.562;2022-09-17T03:39:14;8.20;99.90
4604;DHT22;2314;48.272;11.562;2022-09-17T03:41:41;8.00;99.90
4604;DHT22;2314;48.272;11.562;2022-09-17T03:44:08;8.10;99.90
4604;DHT22;2314;48.272;11.562;2022-09-17T03:46:36;8.00;99.90
4604;DHT22;2314;48.272;11.562;2022-09-17T03:49:03;7.90;99.90
4604;DHT22;2314;48.272;11.562;2022-09-17T03:51:30;8.00;99.90
4604;DHT22;2314;48.272;11.562;2022-09-17T03:53:57;7.90;99.90
4604;DHT22;2314;48.272;11.562;2022-09-17T03:56:25;7.90;99.90
4604;DHT22;2314;48.272;11.562;2022-09-17T03:58:56;7.90;99.90
4604;DHT22;2314;48.272;11.562;2022-09-17T04:01:24;7.80;99.90
4604;DHT22;2314;48.272;11.562;2022-09-17T04:03:52;7.80;99.90
4604;DHT22;2314;48.272;11.562;2022-09-17T04:06:19;7.80;99.90
4604;DHT22;2314;48.272;11.562;2022-09-17T04:08:46;7.80;99.90
4604;DHT22;2314;48.272;11.562;2022-09-17T04:11:13;7.70;99.90
4604;DHT22;2314;48.272;11.562;2022-09-17T04:13:42;7.70;99.90
4604;DHT22;2314;48.272;11.562;2022-09-17T04:16:09;7.70;99.90
4604;DHT22;2314;48.272;11.562;2022-09-17T04:18:36;7.70;99.90
4604;DHT22;2314;48.272;11.562;2022-09-17T04:21:04;7.70;99.90
4604;DHT22;2314;48.272;11.562;2022-09-17T04:23:31;7.60;99.90
4604;DHT22;2314;48.272;11.562;2022-09-17T04:25:58;7.60;99.90
4604;DHT22;2314;48.272;11.562;2022-09-17T04:28:25;7.60;99.90
4604;DHT22;2314;48.272;11.562;2022-09-17T04:30:54;7.60;99.90
4604;DHT22;2314;48.272;11.562;2022-09-17T04:33:22;7.60;99.90
4604;DHT22;2314;48.272;11.562;2022-09-17T04:35:49;7.60;99.90
4604;DHT22;2314;48.272;11.562;2022-09-17T04:38:16;7.60;99.90
4604;DHT22;2314;48.272;11.562;2022-09-17T04:40:45;7.60;99.90
4604;DHT22;2314;48.272;11.562;2022-09-17T04:43:12;7.60;99.90
4604;DHT22;2314;48.272;11.562;2022-09-17T04:45:40;7.50;99.90
4604;DHT22;2314;48.272;11.562;2022-09-17T04:48:08;7.50;99.90
4604;DHT22;2314;48.272;11.562;2022-09-17T04:50:35;7.50;99.90
4604;DHT22;2314;48.272;11.562;2022-09-17T04:53:02;7.50;99.90
4604;DHT22;2314;48.272;11.562;2022-09-17T04:55:29;7.50;99.90
4604;DHT22;2314;48.272;11.562;2022-09-17T04:57:57;7.60;99.90
4604;DHT22;2314;48.272;11.562;2022-09-17T05:00:24;7.90;99.90
4604;DHT22;2314;48.272;11.562;2022-09-17T05:02:52;7.80;99.90
4604;DHT22;2314;48.272;11.562;2022-09-17T05:05:23;7.80;99.90
4604;DHT22;2314;48.272;11.562;2022-09-17T05:07:50;7.70;99.90
4604;DHT22;2314;48.272;11.562;2022-09-17T05:10:19;7.70;99.90
4604;DHT22;2314;48.272;11.562;2022-09-17T05:12:48;7.70;99.90
4604;DHT22;2314;48.272;11.562;2022-09-17T05:15:16;7.70;99.90
4604;DHT22;2314;48.272;11.562;2022-09-17T05:17:44;7.90;99.90
4604;DHT22;2314;48.272;11.562;2022-09-17T05:20:12;8.00;99.90
4604;DHT22;2314;48.272;11.562;2022-09-17T05:22:43;8.00;99.90
4604;DHT22;2314;48.272;11.562;2022-09-17T05:25:11;8.10;99.90
4604;DHT22;2314;48.272;11.562;2022-09-17T05:27:40;8.20;99.90
4604;DHT22;2314;48.272;11.562;2022-09-17T05:30:08;8.20;99.90
4604;DHT22;2314;48.272;11.562;2022-09-17T05:32:36;8.20;99.90
4604;DHT22;2314;48.272;11.562;2022-09-17T05:35:05;8.30;99.90
4604;DHT22;2314;48.272;11.562;2022-09-17T05:37:33;8.30;99.90
4604;DHT22;2314;48.272;11.562;2022-09-17T05:40:02;8.30;99.90
4604;DHT22;2314;48.272;11.562;2022-09-17T05:42:30;8.30;99.90
4604;DHT22;2314;48.272;11.562;2022-09-17T05:44:58;8.40;99.90
4604;DHT22;2314;48.272;11.562;2022-09-17T05:47:26;8.40;99.90
4604;DHT22;2314;48.272;11.562;2022-09-17T05:49:53;8.40;99.90
4604;DHT22;2314;48.272;11.562;2022-09-17T05:52:20;8.40;99.90
4604;DHT22;2314;48.272;11.562;2022-09-17T05:54:47;8.40;99.90
4604;DHT22;2314;48.272;11.562;2022-09-17T05:57:15;8.40;99.90
4604;DHT22;2314;48.272;11.562;2022-09-17T05:59:42;8.40;99.90
4604;DHT22;2314;48.272;11.562;2022-09-17T06:02:12;8.40;99.90
4604;DHT22;2314;48.272;11.562;2022-09-17T06:04:39;8.50;99.90
4604;DHT22;2314;48.272;11.562;2022-09-17T06:07:07;8.50;99.90
4604;DHT22;2314;48.272;11.562;2022-09-17T06:09:35;8.50;99.90
4604;DHT22;2314;48.272;11.562;2022-09-17T06:12:03;8.50;99.90
4604;DHT22;2314;48.272;11.562;2022-09-17T06:14:32;8.50;99.90
4604;DHT22;2314;48.272;11.562;2022-09-17T06:16:59;8.60;99.90
4604;DHT22;2314;48.272;11.562;2022-09-17T06:19:26;8.50;99.90
4604;DHT22;2314;48.272;11.562;2022-09-17T06:21:54;8.60;99.90
4604;DHT22;2314;48.272;11.562;2022-09-17T06:24:22;8.60;99.90
4604;DHT22;2314;48.272;11.562;2022-09-17T06:26:50;8.60;99.90
4604;DHT22;2314;48.272;11.562;2022-09-17T06:29:17;8.60;99.90
4604;DHT22;2314;48.272;11.562;2022-09-17T06:31:46;8.70;99.90
4604;DHT22;2314;48.272;11.562;2022-09-17T06:34:14;8.70;99.90
4604;DHT22;2314;48.272;11.562;2022-09-17T06:36:41;8.80;99.90
4604;DHT22;2314;48.272;11.562;2022-09-17T06:39:08;8.80;99.90
4604;DHT22;2314;48.272;11.562;2022-09-17T06:41:36;8.80;99.90
4604;DHT22;2314;48.272;11.562;2022-09-17T06:44:04;8.80;99.90
4604;DHT22;2314;48.272;11.562;2022-09-17T06:46:31;8.90;99.90
4604;DHT22;2314;48.272;11.562;2022-09-17T06:48:59;8.80;99.90
4604;DHT22;2314;48.272;11.562;2022-09-17T06:51:29;8.90;99.90
4604;DHT22;2314;48.272;11.562;2022-09-17T06:53:56;8.90;99.90
4604;DHT22;2314;48.272;11.562;2022-09-17T06:56:24;8.90;99.90
4604;DHT22;2314;48.272;11.562;2022-09-17T06:58:53;8.90;99.90
4604;DHT22;2314;48.272;11.562;2022-09-17T07:01:24;8.90;99.90
4604;DHT22;2314;48.272;11.562;2022-09-17T07:03:54;9.00;99.90
4604;DHT22;2314;48.272;11.562;2022-09-17T07:06:23;8.90;99.90
4604;DHT22;2314;48.272;11.562;2022-09-17T07:08:50;8.90;99.90
4604;DHT22;2314;48.272;11.562;2022-09-17T07:11:17;9.00;99.90
4604;DHT22;2314;48.272;11.562;2022-09-17T07:13:50;9.10;99.90
4604;DHT22;2314;48.272;11.562;2022-09-17T07:16:22;9.10;99.90
4604;DHT22;2314;48.272;11.562;2022-09-17T07:18:56;9.20;99.90
4604;DHT22;2314;48.272;11.562;2022-09-17T07:21:35;9.20;99.90
4604;DHT22;2314;48.272;11.562;2022-09-17T07:24:23;9.30;99.90
4604;DHT22;2314;48.272;11.562;2022-09-17T07:26:53;9.40;99.90
4604;DHT22;2314;48.272;11.562;2022-09-17T07:29:36;9.50;99.90
4604;DHT22;2314;48.272;11.562;2022-09-17T07:32:05;9.70;99.90
4604;DHT22;2314;48.272;11.562;2022-09-17T07:34:33;9.80;99.90
4604;DHT22;2314;48.272;11.562;2022-09-17T07:37:01;9.80;99.90
4604;DHT22;2314;48.272;11.562;2022-09-17T07:39:28;9.80;99.90
4604;DHT22;2314;48.272;11.562;2022-09-17T07:41:56;9.80;99.90
4604;DHT22;2314;48.272;11.562;2022-09-17T07:44:31;9.80;99.90
4604;DHT22;2314;48.272;11.562;2022-09-17T07:46:58;9.90;99.90
4604;DHT22;2314;48.272;11.562;2022-09-17T07:49:26;9.90;99.90
4604;DHT22;2314;48.272;11.562;2022-09-17T07:51:53;10.00;99.90
4604;DHT22;2314;48.272;11.562;2022-09-17T07:54:21;10.10;99.90
4604;DHT22;2314;48.272;11.562;2022-09-17T07:56:49;10.20;99.90
4604;DHT22;2314;48.272;11.562;2022-09-17T07:59:16;10.30;99.90
4604;DHT22;2314;48.272;11.562;2022-09-17T08:01:44;10.30;99.90
4604;DHT22;2314;48.272;11.562;2022-09-17T08:04:13;10.40;99.90
4604;DHT22;2314;48.272;11.562;2022-09-17T08:06:40;10.60;99.90
4604;DHT22;2314;48.272;11.562;2022-09-17T08:09:08;10.60;99.90
4604;DHT22;2314;48.272;11.562;2022-09-17T08:11:37;10.60;99.90
4604;DHT22;2314;48.272;11.562;2022-09-17T08:14:04;10.70;99.90
4604;DHT22;2314;48.272;11.562;2022-09-17T08:16:34;10.70;99.90
4604;DHT22;2314;48.272;11.562;2022-09-17T08:19:01;10.70;99.90
4604;DHT22;2314;48.272;11.562;2022-09-17T08:21:28;10.70;99.90
4604;DHT22;2314;48.272;11.562;2022-09-17T08:23:55;10.60;99.90
4604;DHT22;2314;48.272;11.562;2022-09-17T08:26:23;10.50;99.90
4604;DHT22;2314;48.272;11.562;2022-09-17T08:28:53;10.80;99.90
4604;DHT22;2314;48.272;11.562;2022-09-17T08:31:21;11.00;99.90
4604;DHT22;2314;48.272;11.562;2022-09-17T08:33:49;10.80;99.90
4604;DHT22;2314;48.272;11.562;2022-09-17T08:36:17;10.90;99.90
4604;DHT22;2314;48.272;11.562;2022-09-17T08:38:45;10.80;99.90
4604;DHT22;2314;48.272;11.562;2022-09-17T08:41:20;10.80;99.90
4604;DHT22;2314;48.272;11.562;2022-09-17T08:44:01;10.70;99.90
4604;DHT22;2314;48.272;11.562;2022-09-17T08:46:42;10.60;99.90
4604;DHT22;2314;48.272;11.562;2022-09-17T08:49:19;10.60;99.90
4604;DHT22;2314;48.272;11.562;2022-09-17T08:52:42;10.60;99.90
4604;DHT22;2314;48.272;11.562;2022-09-17T08:55:26;10.40;99.90
4604;DHT22;2314;48.272;11.562;2022-09-17T08:58:14;10.20;99.90
4604;DHT22;2314;48.272;11.562;2022-09-17T09:01:10;10.10;99.90
4604;DHT22;2314;48.272;11.562;2022-09-17T09:04:01;10.20;99.90
4604;DHT22;2314;48.272;11.562;2022-09-17T09:06:36;10.10;99.90
4604;DHT22;2314;48.272;11.562;2022-09-17T09:09:15;10.00;99.90
4604;DHT22;2314;48.272;11.562;2022-09-17T09:11:45;9.90;99.90
4604;DHT22;2314;48.272;11.562;2022-09-17T09:14:20;9.70;99.90
4604;DHT22;2314;48.272;11.562;2022-09-17T09:16:53;9.60;99.90
4604;DHT22;2314;48.272;11.562;2022-09-17T09:19:30;9.60;99.90
4604;DHT22;2314;48.272;11.562;2022-09-17T09:22:02;9.60;99.90
4604;DHT22;2314;48.272;11.562;2022-09-17T09:24:39;9.60;99.90
4604;DHT22;2314;48.272;11.562;2022-09-17T09:27:15;9.50;99.90
4604;DHT22;2314;48.272;11.562;2022-09-17T09:29:52;9.30;99.90
4604;DHT22;2314;48.272;11.562;2022-09-17T09:32:37;9.10;99.90
4604;DHT22;2314;48.272;11.562;2022-09-17T09:35:16;9.00;99.90
4604;DHT22;2314;48.272;11.562;2022-09-17T09:37:56;9.10;99.90
4604;DHT22;2314;48.272;11.562;2022-09-17T09:40:43;9.10;99.90
4604;DHT22;2314;48.272;11.562;2022-09-17T09:43:16;9.10;99.90
4604;DHT22;2314;48.272;11.562;2022-09-17T09:46:14;9.00;99.90
4604;DHT22;2314;48.272;11.562;2022-09-17T09:49:03;9.10;99.90
4604;DHT22;2314;48.272;11.562;2022-09-17T09:51:45;9.20;99.90
4604;DHT22;2314;48.272;11.562;2022-09-17T09:54:26;9.20;99.90
4604;DHT22;2314;48.272;11.562;2022-09-17T09:57:02;9.10;99.90
4604;DHT22;2314;48.272;11.562;2022-09-17T09:59:32;9.10;99.90
4604;DHT22;2314;48.272;11.562;2022-09-17T10:02:00;9.20;99.90
4604;DHT22;2314;48.272;11.562;2022-09-17T10:04:29;9.10;99.90
4604;DHT22;2314;48.272;11.562;2022-09-17T10:07:00;9.10;99.90
4604;DHT22;2314;48.272;11.562;2022-09-17T10:09:31;9.00;99.90
4604;DHT22;2314;48.272;11.562;2022-09-17T10:12:05;8.90;99.90
4604;DHT22;2314;48.272;11.562;2022-09-17T10:14:42;9.00;99.90
4604;DHT22;2314;48.272;11.562;2022-09-17T10:17:27;9.10;99.90
4604;DHT22;2314;48.272;11.562;2022-09-17T10:20:13;9.00;99.90
4604;DHT22;2314;48.272;11.562;2022-09-17T10:22:43;9.10;99.90
4604;DHT22;2314;48.272;11.562;2022-09-17T10:25:26;9.10;99.90
4604;DHT22;2314;48.272;11.562;2022-09-17T10:27:55;9.10;99.90
4604;DHT22;2314;48.272;11.562;2022-09-17T10:30:23;9.30;99.90
4604;DHT22;2314;48.272;11.562;2022-09-17T10:33:15;9.40;99.90
4604;DHT22;2314;48.272;11.562;2022-09-17T10:35:58;9.50;99.90
4604;DHT22;2314;48.272;11.562;2022-09-17T10:38:29;9.50;99.90
4604;DHT22;2314;48.272;11.562;2022-09-17T10:41:16;9.50;99.90
4604;DHT22;2314;48.272;11.562;2022-09-17T10:43:46;9.50;99.90
4604;DHT22;2314;48.272;11.562;2022-09-17T10:46:17;9.70;99.90
4604;DHT22;2314;48.272;11.562;2022-09-17T10:48:55;9.80;99.90
4604;DHT22;2314;48.272;11.562;2022-09-17T10:51:27;9.70;99.90
4604;DHT22;2314;48.272;11.562;2022-09-17T10:57:11;9.70;99.90
4604;DHT22;2314;48.272;11.562;2022-09-17T10:59:51;9.50;99.90
4604;DHT22;2314;48.272;11.562;2022-09-17T11:05:58;9.50;99.90
4604;DHT22;2314;48.272;11.562;2022-09-17T11:08:39;9.50;99.90
4604;DHT22;2314;48.272;11.562;2022-09-17T11:11:25;9.50;99.90
4604;DHT22;2314;48.272;11.562;2022-09-17T11:14:04;9.50;99.90
4604;DHT22;2314;48.272;11.562;2022-09-17T11:16:40;9.50;99.90
4604;DHT22;2314;48.272;11.562;2022-09-17T11:19:18;9.60;99.90
4604;DHT22;2314;48.272;11.562;2022-09-17T11:21:55;9.60;99.90
4604;DHT22;2314;48.272;11.562;2022-09-17T11:24:53;9.50;99.90
4604;DHT22;2314;48.272;11.562;2022-09-17T11:27:47;9.50;99.90
4604;DHT22;2314;48.272;11.562;2022-09-17T11:30:22;9.50;99.90
4604;DHT22;2314;48.272;11.562;2022-09-17T11:33:18;9.60;99.90
4604;DHT22;2314;48.272;11.562;2022-09-17T11:36:09;9.60;99.90
4604;DHT22;2314;48.272;11.562;2022-09-17T11:38:39;9.60;99.90
4604;DHT22;2314;48.272;11.562;2022-09-17T11:41:13;9.80;99.90
4604;DHT22;2314;48.272;11.562;2022-09-17T11:43:45;10.00;99.90
4604;DHT22;2314;48.272;11.562;2022-09-17T11:46:16;10.30;99.90
4604;DHT22;2314;48.272;11.562;2022-09-17T11:48:57;10.50;99.90
4604;DHT22;2314;48.272;11.562;2022-09-17T11:51:37;10.60;99.90
4604;DHT22;2314;48.272;11.562;2022-09-17T11:54:17;10.60;99.90
4604;DHT22;2314;48.272;11.562;2022-09-17T11:56:51;10.50;99.90
4604;DHT22;2314;48.272;11.562;2022-09-17T11:59:26;10.50;99.90
4604;DHT22;2314;48.272;11.562;2022-09-17T12:02:00;10.40;99.90
4604;DHT22;2314;48.272;11.562;2022-09-17T12:04:39;10.50;99.90
4604;DHT22;2314;48.272;11.562;2022-09-17T12:07:34;10.60;99.90
4604;DHT22;2314;48.272;11.562;2022-09-17T12:10:32;10.70;99.90
4604;DHT22;2314;48.272;11.562;2022-09-17T12:13:13;10.80;99.90
4604;DHT22;2314;48.272;11.562;2022-09-17T12:15:46;10.90;99.90
4604;DHT22;2314;48.272;11.562;2022-09-17T12:18:21;11.10;99.90
4604;DHT22;2314;48.272;11.562;2022-09-17T12:20:55;11.30;99.90
4604;DHT22;2314;48.272;11.562;2022-09-17T12:23:31;11.70;99.90
4604;DHT22;2314;48.272;11.562;2022-09-17T12:26:11;11.90;99.90
4604;DHT22;2314;48.272;11.562;2022-09-17T12:28:52;12.20;99.90
4604;DHT22;2314;48.272;11.562;2022-09-17T12:31:31;12.20;99.90
4604;DHT22;2314;48.272;11.562;2022-09-17T12:34:24;12.30;99.90
4604;DHT22;2314;48.272;11.562;2022-09-17T12:37:03;12.50;99.90
4604;DHT22;2314;48.272;11.562;2022-09-17T12:40:04;12.80;99.90
4604;DHT22;2314;48.272;11.562;2022-09-17T12:42:48;13.20;99.90
4604;DHT22;2314;48.272;11.562;2022-09-17T12:45:45;13.30;99.90
4604;DHT22;2314;48.272;11.562;2022-09-17T12:51:53;11.80;99.90
4604;DHT22;2314;48.272;11.562;2022-09-17T12:54:43;11.60;99.90
4604;DHT22;2314;48.272;11.562;2022-09-17T12:57:30;11.60;99.90
4604;DHT22;2314;48.272;11.562;2022-09-17T13:00:04;11.70;99.90
4604;DHT22;2314;48.272;11.562;2022-09-17T13:02:39;11.90;99.90
4604;DHT22;2314;48.272;11.562;2022-09-17T13:05:45;12.30;99.90
4604;DHT22;2314;48.272;11.562;2022-09-17T13:08:41;12.30;99.90
4604;DHT22;2314;48.272;11.562;2022-09-17T13:11:51;12.00;99.90
4604;DHT22;2314;48.272;11.562;2022-09-17T13:17:41;11.80;99.90
4604;DHT22;2314;48.272;11.562;2022-09-17T13:20:14;12.00;99.90
4604;DHT22;2314;48.272;11.562;2022-09-17T13:22:48;12.30;99.90
4604;DHT22;2314;48.272;11.562;2022-09-17T13:25:18;12.50;99.90
4604;DHT22;2314;48.272;11.562;2022-09-17T13:27:48;12.60;99.90
4604;DHT22;2314;48.272;11.562;2022-09-17T13:30:17;12.70;99.90
4604;DHT22;2314;48.272;11.562;2022-09-17T13:32:51;12.80;99.90
4604;DHT22;2314;48.272;11.562;2022-09-17T13:35:49;12.60;99.90
4604;DHT22;2314;48.272;11.562;2022-09-17T13:38:18;12.80;99.90
4604;DHT22;2314;48.272;11.562;2022-09-17T13:40:47;12.60;99.90
4604;DHT22;2314;48.272;11.562;2022-09-17T13:43:18;12.40;99.90
4604;DHT22;2314;48.272;11.562;2022-09-17T13:46:16;12.30;99.90
4604;DHT22;2314;48.272;11.562;2022-09-17T13:49:01;12.20;99.90
4604;DHT22;2314;48.272;11.562;2022-09-17T13:51:44;12.30;99.90
4604;DHT22;2314;48.272;11.562;2022-09-17T13:54:14;12.60;99.90
4604;DHT22;2314;48.272;11.562;2022-09-17T13:56:44;12.80;99.90
4604;DHT22;2314;48.272;11.562;2022-09-17T13:59:15;12.90;99.90
4604;DHT22;2314;48.272;11.562;2022-09-17T14:02:24;12.80;99.90
4604;DHT22;2314;48.272;11.562;2022-09-17T14:05:33;13.10;99.90
4604;DHT22;2314;48.272;11.562;2022-09-17T14:08:25;13.00;99.90
4604;DHT22;2314;48.272;11.562;2022-09-17T14:10:58;12.90;99.90
4604;DHT22;2314;48.272;11.562;2022-09-17T14:13:42;13.00;99.90
4604;DHT22;2314;48.272;11.562;2022-09-17T14:16:46;13.10;99.90
4604;DHT22;2314;48.272;11.562;2022-09-17T14:19:45;13.10;99.90
4604;DHT22;2314;48.272;11.562;2022-09-17T14:22:18;12.80;99.90
4604;DHT22;2314;48.272;11.562;2022-09-17T14:24:53;12.60;99.90
4604;DHT22;2314;48.272;11.562;2022-09-17T14:27:39;12.30;99.90
4604;DHT22;2314;48.272;11.562;2022-09-17T14:30:17;12.10;99.90
4604;DHT22;2314;48.272;11.562;2022-09-17T14:32:52;11.90;99.90
4604;DHT22;2314;48.272;11.562;2022-09-17T14:35:36;11.60;99.90
4604;DHT22;2314;48.272;11.562;2022-09-17T14:38:15;10.70;99.90
4604;DHT22;2314;48.272;11.562;2022-09-17T14:40:55;10.60;99.90
4604;DHT22;2314;48.272;11.562;2022-09-17T14:43:39;10.50;99.90
4604;DHT22;2314;48.272;11.562;2022-09-17T14:46:17;10.50;99.90
4604;DHT22;2314;48.272;11.562;2022-09-17T14:48:46;10.60;99.90
4604;DHT22;2314;48.272;11.562;2022-09-17T14:51:25;10.50;99.90
4604;DHT22;2314;48.272;11.562;2022-09-17T14:54:18;10.50;99.90
4604;DHT22;2314;48.272;11.562;2022-09-17T14:56:53;10.50;99.90
4604;DHT22;2314;48.272;11.562;2022-09-17T14:59:44;10.50;99.90
4604;DHT22;2314;48.272;11.562;2022-09-17T15:02:28;10.50;99.90
4604;DHT22;2314;48.272;11.562;2022-09-17T15:04:57;10.60;99.90
4604;DHT22;2314;48.272;11.562;2022-09-17T15:07:26;10.70;99.90
4604;DHT22;2314;48.272;11.562;2022-09-17T15:10:06;10.70;99.90
4604;DHT22;2314;48.272;11.562;2022-09-17T15:12:36;10.70;99.90
4604;DHT22;2314;48.272;11.562;2022-09-17T15:15:05;10.80;99.90
4604;DHT22;2314;48.272;11.562;2022-09-17T15:17:41;10.80;99.90
4604;DHT22;2314;48.272;11.562;2022-09-17T15:20:15;10.80;99.90
4604;DHT22;2314;48.272;11.562;2022-09-17T15:22:52;10.80;99.90
4604;DHT22;2314;48.272;11.562;2022-09-17T15:25:25;10.70;99.90
4604;DHT22;2314;48.272;11.562;2022-09-17T15:27:57;10.60;99.90
4604;DHT22;2314;48.272;11.562;2022-09-17T15:30:30;10.50;99.90
4604;DHT22;2314;48.272;11.562;2022-09-17T15:32:58;10.50;99.90
4604;DHT22;2314;48.272;11.562;2022-09-17T15:35:27;10.40;99.90
4604;DHT22;2314;48.272;11.562;2022-09-17T15:37:56;10.40;99.90
4604;DHT22;2314;48.272;11.562;2022-09-17T15:40:32;10.30;99.90
4604;DHT22;2314;48.272;11.562;2022-09-17T15:43:05;10.30;99.90
4604;DHT22;2314;48.272;11.562;2022-09-17T15:45:41;10.20;99.90
4604;DHT22;2314;48.272;11.562;2022-09-17T15:48:21;10.20;99.90
4604;DHT22;2314;48.272;11.562;2022-09-17T15:51:00;10.20;99.90
4604;DHT22;2314;48.272;11.562;2022-09-17T15:53:29;10.20;99.90
4604;DHT22;2314;48.272;11.562;2022-09-17T15:56:12;10.20;99.90
4604;DHT22;2314;48.272;11.562;2022-09-17T15:58:52;10.30;99.90
4604;DHT22;2314;48.272;11.562;2022-09-17T16:04:36;10.30;99.90
4604;DHT22;2314;48.272;11.562;2022-09-17T16:07:25;10.30;99.90
4604;DHT22;2314;48.272;11.562;2022-09-17T16:09:54;10.30;99.90
4604;DHT22;2314;48.272;11.562;2022-09-17T16:12:26;10.30;99.90
4604;DHT22;2314;48.272;11.562;2022-09-17T16:14:55;10.20;99.90
4604;DHT22;2314;48.272;11.562;2022-09-17T16:17:30;10.20;99.90
4604;DHT22;2314;48.272;11.562;2022-09-17T16:20:12;10.10;99.90
4604;DHT22;2314;48.272;11.562;2022-09-17T16:22:41;10.10;99.90
4604;DHT22;2314;48.272;11.562;2022-09-17T16:25:09;10.10;99.90
4604;DHT22;2314;48.272;11.562;2022-09-17T16:27:46;10.10;99.90
4604;DHT22;2314;48.272;11.562;2022-09-17T16:30:17;10.10;99.90
4604;DHT22;2314;48.272;11.562;2022-09-17T16:32:45;10.10;99.90
4604;DHT22;2314;48.272;11.562;2022-09-17T16:35:14;10.00;99.90
4604;DHT22;2314;48.272;11.562;2022-09-17T16:37:42;9.90;99.90
4604;DHT22;2314;48.272;11.562;2022-09-17T16:40:10;9.80;99.90
4604;DHT22;2314;48.272;11.562;2022-09-17T16:42:38;9.80;99.90
4604;DHT22;2314;48.272;11.562;2022-09-17T16:45:07;9.70;99.90
4604;DHT22;2314;48.272;11.562;2022-09-17T16:47:35;9.60;99.90
4604;DHT22;2314;48.272;11.562;2022-09-17T16:50:04;9.50;99.90
4604;DHT22;2314;48.272;11.562;2022-09-17T16:52:32;9.40;99.90
4604;DHT22;2314;48.272;11.562;2022-09-17T16:55:00;9.40;99.90
4604;DHT22;2314;48.272;11.562;2022-09-17T16:57:28;9.30;99.90
4604;DHT22;2314;48.272;11.562;2022-09-17T16:59:55;9.30;99.90
4604;DHT22;2314;48.272;11.562;2022-09-17T17:02:24;9.20;99.90